Time,TemperatureF,DewpointF,PressureIn,WindDirection,WindDirectionDegrees,WindSpeedMPH,WindSpeedGustMPH,Humidity,HourlyPrecipIn,Conditions,Clouds,dailyrainin,SoftwareType,DateUTC
2013-05-28 00:00:00,58.3,43.6,30.14,WSW,258,0.0,0.0,58,0.00,,,0.00,Wunderground v.1.15,2013-05-28 04:00:00,
2013-05-28 00:05:00,58.3,43.0,30.14,WSW,258,0.0,0.0,58,0.00,,,0.00,weatherlink.com 1.10,2013-05-28 04:05:00,
2013-05-28 00:10:00,58.2,43.5,30.14,WSW,258,0.0,0.0,58,0.00,,,0.00,Wunderground v.1.15,2013-05-28 04:10:00,
2013-05-28 00:20:00,58.0,45.0,30.15,WSW,258,0.0,0.0,62,0.00,,,0.00,Wunderground v.1.15,2013-05-28 04:20:00,
2013-05-28 00:21:00,58.0,46.0,30.15,WSW,258,0.0,0.0,65,0.00,,,0.00,weatherlink.com 1.10,2013-05-28 04:21:00,
2013-05-28 00:30:00,57.1,44.6,30.15,WSW,258,0.0,0.0,63,0.00,,,0.00,Wunderground v.1.15,2013-05-28 04:30:00,
2013-05-28 00:37:00,56.7,44.0,30.16,WSW,258,0.0,0.0,63,0.00,,,0.00,weatherlink.com 1.10,2013-05-28 04:37:00,
2013-05-28 00:50:00,56.1,45.3,30.17,WSW,258,0.0,0.0,67,0.00,,,0.00,Wunderground v.1.15,2013-05-28 04:50:00,
2013-05-28 01:00:00,55.6,44.4,30.16,WSW,258,0.0,0.0,66,0.00,,,0.00,Wunderground v.1.15,2013-05-28 05:00:00,
2013-05-28 01:06:00,55.5,45.0,30.17,WSW,258,0.0,0.0,68,0.00,,,0.00,weatherlink.com 1.10,2013-05-28 05:06:00,
2013-05-28 01:20:00,54.8,45.2,30.17,WSW,258,0.0,0.0,70,0.00,,,0.00,Wunderground v.1.15,2013-05-28 05:20:00,
2013-05-28 01:30:00,54.2,45.0,30.17,WSW,258,0.0,0.0,71,0.00,,,0.00,Wunderground v.1.15,2013-05-28 05:30:00,
2013-05-28 01:37:00,53.8,46.0,30.18,WSW,258,0.0,0.0,74,0.00,,,0.00,weatherlink.com 1.10,2013-05-28 05:37:00,
2013-05-28 01:50:00,53.0,45.3,30.17,WSW,258,0.0,0.0,75,0.00,,,0.00,Wunderground v.1.15,2013-05-28 05:50:00,
2013-05-28 02:00:00,52.7,46.0,30.18,WSW,258,0.0,0.0,78,0.00,,,0.00,Wunderground v.1.15,2013-05-28 06:00:00,
2013-05-28 02:07:00,52.6,46.0,30.18,WSW,258,0.0,0.0,79,0.00,,,0.00,weatherlink.com 1.10,2013-05-28 06:07:00,
2013-05-28 02:20:00,51.9,44.6,30.17,WSW,258,0.0,0.0,76,0.00,,,0.00,Wunderground v.1.15,2013-05-28 06:20:00,
2013-05-28 02:30:00,52.3,44.3,30.17,WSW,258,0.0,0.0,74,0.00,,,0.00,Wunderground v.1.15,2013-05-28 06:30:00,
2013-05-28 02:38:00,52.5,44.0,30.17,WSW,258,0.0,0.0,73,0.00,,,0.00,weatherlink.com 1.10,2013-05-28 06:38:00,
2013-05-28 02:50:00,52.5,44.4,30.17,WSW,258,0.0,0.0,74,0.00,,,0.00,Wunderground v.1.15,2013-05-28 06:50:00,
2013-05-28 03:00:00,52.6,45.9,30.16,WSW,258,0.0,0.0,78,0.00,,,0.00,Wunderground v.1.15,2013-05-28 07:00:00,
2013-05-28 03:07:00,52.3,46.0,30.16,WSW,258,0.0,0.0,79,0.00,,,0.00,weatherlink.com 1.10,2013-05-28 07:07:00,
2013-05-28 03:20:00,52.1,45.1,30.16,WSW,258,0.0,0.0,77,0.00,,,0.00,Wunderground v.1.15,2013-05-28 07:20:00,
2013-05-28 03:30:00,52.0,45.0,30.17,WSW,258,0.0,0.0,77,0.00,,,0.00,Wunderground v.1.15,2013-05-28 07:30:00,
2013-05-28 03:38:00,52.0,45.0,30.17,WSW,258,0.0,0.0,77,0.00,,,0.00,weatherlink.com 1.10,2013-05-28 07:38:00,
2013-05-28 03:50:00,51.9,46.3,30.17,WSW,258,0.0,0.0,81,0.00,,,0.00,Wunderground v.1.15,2013-05-28 07:50:00,
2013-05-28 04:00:00,51.5,45.9,30.16,WSW,258,0.0,0.0,81,0.00,,,0.00,Wunderground v.1.15,2013-05-28 08:00:00,
2013-05-28 04:08:00,51.3,45.0,30.16,WSW,258,0.0,0.0,80,0.00,,,0.00,weatherlink.com 1.10,2013-05-28 08:08:00,
2013-05-28 04:20:00,51.3,45.7,30.16,WSW,258,0.0,0.0,81,0.00,,,0.00,Wunderground v.1.15,2013-05-28 08:20:00,
2013-05-28 04:30:00,51.2,46.2,30.16,WSW,258,0.0,0.0,83,0.00,,,0.00,Wunderground v.1.15,2013-05-28 08:30:00,
2013-05-28 04:38:00,51.1,46.0,30.16,WSW,258,0.0,0.0,82,0.00,,,0.00,weatherlink.com 1.10,2013-05-28 08:38:00,
2013-05-28 04:50:00,51.0,45.7,30.16,WSW,258,0.0,0.0,82,0.00,,,0.00,Wunderground v.1.15,2013-05-28 08:50:00,
2013-05-28 05:00:00,51.1,46.4,30.16,WSW,258,0.0,0.0,84,0.00,,,0.00,Wunderground v.1.15,2013-05-28 09:00:00,
2013-05-28 05:08:00,51.0,45.0,30.16,WSW,258,0.0,0.0,81,0.00,,,0.00,weatherlink.com 1.10,2013-05-28 09:08:00,
2013-05-28 05:20:00,51.1,46.1,30.17,WSW,258,0.0,0.0,83,0.00,,,0.00,Wunderground v.1.15,2013-05-28 09:20:00,
2013-05-28 05:30:00,51.0,46.3,30.17,WSW,258,0.0,0.0,84,0.00,,,0.00,Wunderground v.1.15,2013-05-28 09:30:00,
2013-05-28 05:38:00,50.9,46.0,30.17,WSW,258,0.0,0.0,84,0.00,,,0.00,weatherlink.com 1.10,2013-05-28 09:38:00,
2013-05-28 05:50:00,50.5,44.9,30.17,WSW,258,0.0,0.0,81,0.00,,,0.00,Wunderground v.1.15,2013-05-28 09:50:00,
2013-05-28 06:00:00,50.5,46.2,30.17,WSW,258,0.0,0.0,85,0.00,,,0.00,Wunderground v.1.15,2013-05-28 10:00:00,
2013-05-28 06:09:00,50.6,47.0,30.17,WSW,258,0.0,0.0,86,0.00,,,0.00,weatherlink.com 1.10,2013-05-28 10:09:00,
2013-05-28 06:20:00,50.7,46.7,30.17,WSW,258,0.0,0.0,86,0.00,,,0.00,Wunderground v.1.15,2013-05-28 10:20:00,
2013-05-28 06:30:00,50.9,46.6,30.17,WSW,258,0.0,0.0,85,0.00,,,0.00,Wunderground v.1.15,2013-05-28 10:30:00,
2013-05-28 06:39:00,51.2,47.0,30.17,WSW,258,0.0,0.0,84,0.00,,,0.00,weatherlink.com 1.10,2013-05-28 10:39:00,
2013-05-28 06:50:00,51.9,48.2,30.17,WSW,258,0.0,0.0,87,0.00,,,0.00,Wunderground v.1.15,2013-05-28 10:50:00,
2013-05-28 07:00:00,52.8,47.8,30.18,WSW,258,0.0,0.0,83,0.00,,,0.00,Wunderground v.1.15,2013-05-28 11:00:00,
2013-05-28 07:10:00,53.6,48.0,30.18,WSW,258,0.0,0.0,80,0.00,,,0.00,weatherlink.com 1.10,2013-05-28 11:10:00,
2013-05-28 07:20:00,54.4,48.0,30.18,WSW,258,0.0,0.0,79,0.00,,,0.00,Wunderground v.1.15,2013-05-28 11:20:00,
2013-05-28 07:30:00,55.2,48.5,30.18,WSW,258,0.0,0.0,78,0.00,,,0.00,Wunderground v.1.15,2013-05-28 11:30:00,
2013-05-28 07:39:00,56.0,49.0,30.18,WSW,258,0.0,0.0,76,0.00,,,0.00,weatherlink.com 1.10,2013-05-28 11:39:00,
2013-05-28 07:50:00,57.0,49.2,30.18,WSW,258,0.0,0.0,75,0.00,,,0.00,Wunderground v.1.15,2013-05-28 11:50:00,
2013-05-28 08:00:00,57.8,48.1,30.18,WSW,257,0.0,0.0,70,0.00,,,0.00,Wunderground v.1.15,2013-05-28 12:00:00,
2013-05-28 08:09:00,58.4,48.0,30.18,WSW,257,0.0,0.0,69,0.00,,,0.00,weatherlink.com 1.10,2013-05-28 12:09:00,
2013-05-28 08:20:00,59.0,47.7,30.18,WSW,256,0.0,0.0,66,0.00,,,0.00,Wunderground v.1.15,2013-05-28 12:20:00,
2013-05-28 08:25:00,59.3,48.0,30.18,WSW,256,0.0,0.0,66,0.00,,,0.00,weatherlink.com 1.10,2013-05-28 12:25:00,
2013-05-28 08:40:00,60.0,48.0,30.18,WSW,256,0.0,0.0,65,0.00,,,0.00,weatherlink.com 1.10,2013-05-28 12:40:00,
2013-05-28 08:50:00,60.4,49.0,30.19,WSW,256,0.0,0.0,66,0.00,,,0.00,Wunderground v.1.15,2013-05-28 12:50:00,
2013-05-28 08:55:00,60.7,49.0,30.19,WSW,256,0.0,0.0,65,0.00,,,0.00,weatherlink.com 1.10,2013-05-28 12:55:00,
2013-05-28 09:00:00,61.0,49.1,30.19,WSW,256,0.0,0.0,65,0.00,,,0.00,Wunderground v.1.15,2013-05-28 13:00:00,
2013-05-28 09:10:00,61.7,50.2,30.19,WSW,255,0.0,0.0,66,0.00,,,0.00,Wunderground v.1.15,2013-05-28 13:10:00,
2013-05-28 09:20:00,62.3,49.5,30.19,WSW,255,0.0,0.0,63,0.00,,,0.00,Wunderground v.1.15,2013-05-28 13:20:00,
2013-05-28 09:30:00,62.7,49.1,30.19,WSW,255,0.0,0.0,61,0.00,,,0.00,Wunderground v.1.15,2013-05-28 13:30:00,
2013-05-28 09:40:00,63.2,49.5,30.19,WSW,255,0.0,0.0,61,0.00,,,0.00,Wunderground v.1.15,2013-05-28 13:40:00,
2013-05-28 09:50:00,63.5,49.8,30.19,WSW,255,0.0,0.0,61,0.00,,,0.00,Wunderground v.1.15,2013-05-28 13:50:00,
2013-05-28 09:55:00,63.7,49.0,30.19,WSW,255,0.0,1.0,60,0.00,,,0.00,weatherlink.com 1.10,2013-05-28 13:55:00,
2013-05-28 10:00:00,63.8,50.1,30.19,WSW,255,0.0,0.0,61,0.00,,,0.00,Wunderground v.1.15,2013-05-28 14:00:00,
2013-05-28 10:10:00,64.1,50.8,30.19,WSW,254,0.0,0.0,62,0.00,,,0.00,Wunderground v.1.15,2013-05-28 14:10:00,
2013-05-28 10:20:00,64.4,51.5,30.19,WSW,256,0.0,0.0,63,0.00,,,0.00,Wunderground v.1.15,2013-05-28 14:20:00,
2013-05-28 10:26:00,64.6,51.0,30.19,WSW,256,0.0,1.0,61,0.00,,,0.00,weatherlink.com 1.10,2013-05-28 14:26:00,
2013-05-28 10:40:00,64.9,51.6,30.19,WSW,255,0.0,0.0,62,0.00,,,0.00,Wunderground v.1.15,2013-05-28 14:40:00,
2013-05-28 10:50:00,64.9,50.7,30.19,WSW,257,0.0,0.0,60,0.00,,,0.00,Wunderground v.1.15,2013-05-28 14:50:00,
2013-05-28 10:56:00,65.1,52.0,30.19,WSW,257,0.0,3.0,62,0.00,,,0.00,weatherlink.com 1.10,2013-05-28 14:56:00,
2013-05-28 11:10:00,65.5,52.1,30.19,WSW,258,0.0,0.0,62,0.00,,,0.00,Wunderground v.1.15,2013-05-28 15:10:00,
2013-05-28 11:20:00,65.7,52.3,30.19,WSW,258,0.0,0.0,62,0.00,,,0.00,Wunderground v.1.15,2013-05-28 15:20:00,
2013-05-28 11:27:00,65.6,52.0,30.19,West,261,0.0,3.0,61,0.00,,,0.00,weatherlink.com 1.10,2013-05-28 15:27:00,
2013-05-28 11:40:00,65.5,52.6,30.19,West,261,0.0,0.0,63,0.00,,,0.00,Wunderground v.1.15,2013-05-28 15:40:00,
2013-05-28 11:50:00,65.2,53.6,30.19,West,261,0.0,0.0,66,0.00,,,0.00,Wunderground v.1.15,2013-05-28 15:50:00,
2013-05-28 11:57:00,64.7,52.0,30.19,West,273,0.0,5.0,63,0.00,,,0.00,weatherlink.com 1.10,2013-05-28 15:57:00,
2013-05-28 12:10:00,63.3,53.0,30.19,West,263,1.0,1.0,69,0.00,,,0.00,Wunderground v.1.15,2013-05-28 16:10:00,
2013-05-28 12:20:00,62.0,54.0,30.19,WNW,288,1.0,1.0,75,0.00,,,0.00,Wunderground v.1.15,2013-05-28 16:20:00,
2013-05-28 12:26:00,61.3,55.0,30.19,WNW,283,0.0,2.0,79,0.00,,,0.00,weatherlink.com 1.10,2013-05-28 16:26:00,
2013-05-28 12:40:00,60.2,54.7,30.19,WNW,291,0.0,0.0,82,0.00,,,0.00,Wunderground v.1.15,2013-05-28 16:40:00,
2013-05-28 12:50:00,59.5,55.0,30.18,WNW,291,0.0,0.0,85,0.00,,,0.00,Wunderground v.1.15,2013-05-28 16:50:00,
2013-05-28 12:58:00,59.1,55.0,30.18,WNW,291,0.0,0.0,86,0.00,,,0.00,weatherlink.com 1.10,2013-05-28 16:58:00,
2013-05-28 13:10:00,58.9,55.4,30.17,WNW,291,0.0,0.0,88,0.00,,,0.00,Wunderground v.1.15,2013-05-28 17:10:00,
2013-05-28 13:20:00,58.9,55.7,30.18,WNW,290,0.0,0.0,89,0.00,,,0.00,Wunderground v.1.15,2013-05-28 17:20:00,
2013-05-28 13:27:00,58.6,55.0,30.18,WNW,290,0.0,1.0,89,0.00,,,0.00,weatherlink.com 1.10,2013-05-28 17:27:00,
2013-05-28 13:40:00,58.2,55.0,30.17,WNW,290,0.0,0.0,89,0.00,,,0.00,Wunderground v.1.15,2013-05-28 17:40:00,
2013-05-28 13:50:00,57.9,55.0,30.17,WNW,290,0.0,0.0,90,0.00,,,0.00,Wunderground v.1.15,2013-05-28 17:50:00,
2013-05-28 13:57:00,57.7,55.0,30.17,WNW,290,0.0,1.0,91,0.00,,,0.00,weatherlink.com 1.10,2013-05-28 17:57:00,
2013-05-28 14:10:00,57.6,55.0,30.17,WNW,290,0.0,0.0,91,0.00,,,0.00,Wunderground v.1.15,2013-05-28 18:10:00,
2013-05-28 14:20:00,57.7,55.4,30.17,WNW,290,0.0,0.0,92,0.00,,,0.00,Wunderground v.1.15,2013-05-28 18:20:00,
2013-05-28 14:27:00,57.6,55.0,30.17,WNW,290,0.0,0.0,92,0.00,,,0.00,weatherlink.com 1.10,2013-05-28 18:27:00,
2013-05-28 14:40:00,57.5,55.2,30.17,WNW,290,0.0,0.0,92,0.00,,,0.00,Wunderground v.1.15,2013-05-28 18:40:00,
2013-05-28 14:50:00,57.6,55.6,30.17,WNW,290,0.0,0.0,93,0.00,,,0.00,Wunderground v.1.15,2013-05-28 18:50:00,
2013-05-28 14:58:00,57.6,56.0,30.17,WNW,290,0.0,0.0,93,0.00,,,0.00,weatherlink.com 1.10,2013-05-28 18:58:00,
2013-05-28 15:10:00,57.6,55.9,30.16,WNW,290,0.0,0.0,94,0.00,,,0.01,Wunderground v.1.15,2013-05-28 19:10:00,
2013-05-28 15:20:00,57.4,55.7,30.16,WNW,290,0.0,0.0,94,0.00,,,0.01,Wunderground v.1.15,2013-05-28 19:20:00,
2013-05-28 15:28:00,57.5,56.0,30.17,WNW,290,0.0,0.0,94,0.02,,,0.02,weatherlink.com 1.10,2013-05-28 19:28:00,
2013-05-28 15:40:00,57.6,55.9,30.17,WNW,290,0.0,0.0,94,0.00,,,0.02,Wunderground v.1.15,2013-05-28 19:40:00,
2013-05-28 15:50:00,57.5,55.8,30.18,WNW,290,0.0,0.0,94,0.00,,,0.02,Wunderground v.1.15,2013-05-28 19:50:00,
2013-05-28 15:58:00,57.1,55.0,30.18,WNW,290,0.0,1.0,94,0.03,,,0.03,weatherlink.com 1.10,2013-05-28 19:58:00,
2013-05-28 16:10:00,56.7,55.0,30.17,WNW,290,0.0,0.0,94,0.00,,,0.04,Wunderground v.1.15,2013-05-28 20:10:00,
2013-05-28 16:20:00,56.3,54.9,30.17,WNW,290,0.0,0.0,95,0.00,,,0.04,Wunderground v.1.15,2013-05-28 20:20:00,
2013-05-28 16:28:00,56.0,55.0,30.17,WNW,290,0.0,1.0,95,0.02,,,0.04,weatherlink.com 1.10,2013-05-28 20:28:00,
2013-05-28 16:40:00,56.0,54.6,30.16,WNW,290,0.0,0.0,95,0.00,,,0.05,Wunderground v.1.15,2013-05-28 20:40:00,
2013-05-28 16:50:00,56.0,54.6,30.16,WNW,290,0.0,0.0,95,0.00,,,0.06,Wunderground v.1.15,2013-05-28 20:50:00,
2013-05-28 16:58:00,55.8,54.0,30.16,WNW,290,0.0,1.0,95,0.03,,,0.06,weatherlink.com 1.10,2013-05-28 20:58:00,
2013-05-28 17:10:00,55.7,54.3,30.16,WNW,290,0.0,0.0,95,0.00,,,0.06,Wunderground v.1.15,2013-05-28 21:10:00,
2013-05-28 17:20:00,55.6,54.2,30.16,WNW,290,0.0,0.0,95,0.00,,,0.07,Wunderground v.1.15,2013-05-28 21:20:00,
2013-05-28 17:28:00,55.6,55.0,30.15,WNW,290,0.0,1.0,96,0.03,,,0.07,weatherlink.com 1.10,2013-05-28 21:28:00,
2013-05-28 17:40:00,55.6,54.5,30.15,WNW,290,0.0,0.0,96,0.00,,,0.08,Wunderground v.1.15,2013-05-28 21:40:00,
2013-05-28 17:50:00,55.6,54.5,30.15,WNW,290,0.0,0.0,96,0.00,,,0.08,Wunderground v.1.15,2013-05-28 21:50:00,
2013-05-28 18:00:00,55.7,55.0,30.14,WNW,290,0.0,0.0,96,0.02,,,0.08,weatherlink.com 1.10,2013-05-28 22:00:00,
2013-05-28 18:10:00,55.7,54.6,30.14,WNW,290,0.0,0.0,96,0.00,,,0.09,Wunderground v.1.15,2013-05-28 22:10:00,
2013-05-28 18:20:00,55.7,54.6,30.14,WNW,290,0.0,0.0,96,0.00,,,0.09,Wunderground v.1.15,2013-05-28 22:20:00,
2013-05-28 18:29:00,55.7,55.0,30.13,WNW,290,0.0,0.0,96,0.03,,,0.10,weatherlink.com 1.10,2013-05-28 22:29:00,
2013-05-28 18:40:00,55.7,54.6,30.14,WNW,290,0.0,0.0,96,0.00,,,0.10,Wunderground v.1.15,2013-05-28 22:40:00,
2013-05-28 18:50:00,55.7,54.6,30.14,WNW,290,0.0,0.0,96,0.00,,,0.11,Wunderground v.1.15,2013-05-28 22:50:00,
2013-05-28 18:59:00,55.8,55.0,30.14,WNW,290,0.0,0.0,96,0.05,,,0.13,weatherlink.com 1.10,2013-05-28 22:59:00,
2013-05-28 19:10:00,55.8,54.7,30.13,WNW,290,0.0,0.0,96,0.11,,,0.15,Wunderground v.1.15,2013-05-28 23:10:00,
2013-05-28 19:15:00,55.8,55.0,30.14,WNW,290,0.0,0.0,96,0.07,,,0.16,weatherlink.com 1.10,2013-05-28 23:15:00,
2013-05-28 19:29:00,55.9,55.0,30.13,WNW,290,0.0,0.0,97,0.09,,,0.19,weatherlink.com 1.10,2013-05-28 23:29:00,
2013-05-28 19:40:00,55.9,55.1,30.13,WNW,290,0.0,0.0,97,0.10,,,0.21,Wunderground v.1.15,2013-05-28 23:40:00,
2013-05-28 19:45:00,55.9,55.0,30.13,WNW,290,0.0,1.0,97,0.11,,,0.22,weatherlink.com 1.10,2013-05-28 23:45:00,
2013-05-28 20:00:00,56.0,55.2,30.13,WNW,290,0.0,0.0,97,0.11,,,0.24,Wunderground v.1.15,2013-05-29 00:00:00,
2013-05-28 20:10:00,56.0,55.2,30.12,WNW,290,0.0,0.0,97,0.10,,,0.26,Wunderground v.1.15,2013-05-29 00:10:00,
2013-05-28 20:15:00,56.0,55.0,30.12,WNW,290,0.0,0.0,97,0.10,,,0.26,weatherlink.com 1.10,2013-05-29 00:15:00,
2013-05-28 20:29:00,56.0,55.0,30.12,WNW,290,0.0,0.0,97,0.10,,,0.29,weatherlink.com 1.10,2013-05-29 00:29:00,
2013-05-28 20:40:00,56.0,55.2,30.11,WNW,290,0.0,0.0,97,0.10,,,0.30,Wunderground v.1.15,2013-05-29 00:40:00,
2013-05-28 20:45:00,56.1,55.0,30.11,WNW,290,0.0,1.0,97,0.09,,,0.31,weatherlink.com 1.10,2013-05-29 00:45:00,
2013-05-28 20:59:00,56.1,55.0,30.12,WNW,290,0.0,0.0,97,0.09,,,0.33,weatherlink.com 1.10,2013-05-29 00:59:00,
2013-05-28 21:10:00,56.2,55.4,30.12,WNW,290,0.0,0.0,97,0.08,,,0.35,Wunderground v.1.15,2013-05-29 01:10:00,
2013-05-28 21:16:00,56.2,55.0,30.12,WNW,290,0.0,0.0,97,0.10,,,0.36,weatherlink.com 1.10,2013-05-29 01:16:00,
2013-05-28 21:30:00,56.3,55.5,30.13,WNW,290,0.0,0.0,97,0.11,,,0.38,Wunderground v.1.15,2013-05-29 01:30:00,
2013-05-28 21:40:00,56.4,55.6,30.13,WNW,290,0.0,0.0,97,0.11,,,0.40,Wunderground v.1.15,2013-05-29 01:40:00,
2013-05-28 21:46:00,56.4,56.0,30.13,WNW,290,0.0,0.0,97,0.10,,,0.41,weatherlink.com 1.10,2013-05-29 01:46:00,
2013-05-28 22:01:00,56.5,55.7,30.13,WNW,290,0.0,0.0,97,0.07,,,0.43,Wunderground v.1.15,2013-05-29 02:01:00,
2013-05-28 22:10:00,56.5,55.7,30.13,WNW,290,0.0,0.0,97,0.08,,,0.44,Wunderground v.1.15,2013-05-29 02:10:00,
2013-05-28 22:16:00,56.6,56.0,30.12,WNW,290,0.0,0.0,97,0.08,,,0.44,weatherlink.com 1.10,2013-05-29 02:16:00,
2013-05-28 22:31:00,56.6,56.0,30.12,WNW,290,0.0,0.0,97,0.08,,,0.46,weatherlink.com 1.10,2013-05-29 02:31:00,
2013-05-28 22:40:00,56.7,55.9,30.12,WNW,290,0.0,0.0,97,0.05,,,0.46,Wunderground v.1.15,2013-05-29 02:40:00,
2013-05-28 22:45:00,56.7,56.0,30.11,WNW,290,0.0,0.0,97,0.06,,,0.46,weatherlink.com 1.10,2013-05-29 02:45:00,
2013-05-28 23:00:00,56.8,56.0,30.11,WNW,290,0.0,0.0,97,0.00,,,0.46,Wunderground v.1.15,2013-05-29 03:00:00,
2013-05-28 23:10:00,56.8,56.0,30.11,WNW,290,0.0,0.0,97,0.00,,,0.46,Wunderground v.1.15,2013-05-29 03:10:00,
2013-05-28 23:17:00,56.9,56.0,30.11,WNW,290,0.0,0.0,97,0.02,,,0.46,weatherlink.com 1.10,2013-05-29 03:17:00,
2013-05-28 23:30:00,56.9,56.1,30.11,WNW,290,0.0,0.0,97,0.00,,,0.46,Wunderground v.1.15,2013-05-29 03:30:00,
2013-05-28 23:40:00,57.0,56.2,30.11,WNW,290,0.0,0.0,97,0.00,,,0.46,Wunderground v.1.15,2013-05-29 03:40:00,
2013-05-28 23:47:00,57.0,56.0,30.11,WNW,290,0.0,0.0,97,0.00,,,0.46,weatherlink.com 1.10,2013-05-29 03:47:00,